sensor_id;sensor_type;location;lat;lon;timestamp;temperature;humidity
53274;DHT22;39163;52.696;6.758;2024-02-21T00:01:15;9.30;99.90
53274;DHT22;39163;52.696;6.758;2024-02-21T00:03:42;9.30;99.90
53274;DHT22;39163;52.696;6.758;2024-02-21T00:06:09;9.30;99.90
53274;DHT22;39163;52.696;6.758;2024-02-21T00:08:37;9.40;99.90
53274;DHT22;39163;52.696;6.758;2024-02-21T00:11:04;9.30;99.90
53274;DHT22;39163;52.696;6.758;2024-02-21T00:13:32;9.40;99.90
53274;DHT22;39163;52.696;6.758;2024-02-21T00:16:00;9.30;99.90
53274;DHT22;39163;52.696;6.758;2024-02-21T00:18:27;9.40;99.90
53274;DHT22;39163;52.696;6.758;2024-02-21T00:20:54;9.40;99.90
53274;DHT22;39163;52.696;6.758;2024-02-21T00:23:21;9.40;99.90
53274;DHT22;39163;52.696;6.758;2024-02-21T00:25:49;9.40;99.90
53274;DHT22;39163;52.696;6.758;2024-02-21T00:28:16;9.40;99.90
53274;DHT22;39163;52.696;6.758;2024-02-21T00:30:43;9.40;99.90
53274;DHT22;39163;52.696;6.758;2024-02-21T00:33:10;9.40;99.90
53274;DHT22;39163;52.696;6.758;2024-02-21T00:35:37;9.40;99.90
53274;DHT22;39163;52.696;6.758;2024-02-21T00:38:04;9.40;99.90
53274;DHT22;39163;52.696;6.758;2024-02-21T00:40:31;9.40;99.90
53274;DHT22;39163;52.696;6.758;2024-02-21T00:42:59;9.40;99.90
53274;DHT22;39163;52.696;6.758;2024-02-21T00:45:26;9.40;99.90
53274;DHT22;39163;52.696;6.758;2024-02-21T00:47:53;9.40;99.90
53274;DHT22;39163;52.696;6.758;2024-02-21T00:50:20;9.40;99.90
53274;DHT22;39163;52.696;6.758;2024-02-21T00:52:47;9.40;99.90
53274;DHT22;39163;52.696;6.758;2024-02-21T00:55:14;9.40;99.90
53274;DHT22;39163;52.696;6.758;2024-02-21T00:57:41;9.40;99.90
53274;DHT22;39163;52.696;6.758;2024-02-21T01:00:11;9.40;99.90
53274;DHT22;39163;52.696;6.758;2024-02-21T01:02:38;9.40;99.90
53274;DHT22;39163;52.696;6.758;2024-02-21T01:05:05;9.40;99.90
53274;DHT22;39163;52.696;6.758;2024-02-21T01:07:32;9.40;99.90
53274;DHT22;39163;52.696;6.758;2024-02-21T01:09:59;9.40;99.90
53274;DHT22;39163;52.696;6.758;2024-02-21T01:12:26;9.40;99.90
53274;DHT22;39163;52.696;6.758;2024-02-21T01:14:54;9.40;99.90
53274;DHT22;39163;52.696;6.758;2024-02-21T01:17:22;9.40;99.90
53274;DHT22;39163;52.696;6.758;2024-02-21T01:19:49;9.40;99.90
53274;DHT22;39163;52.696;6.758;2024-02-21T01:22:16;9.40;99.90
53274;DHT22;39163;52.696;6.758;2024-02-21T01:24:43;9.40;99.90
53274;DHT22;39163;52.696;6.758;2024-02-21T01:27:10;9.40;99.90
53274;DHT22;39163;52.696;6.758;2024-02-21T01:29:37;9.40;99.90
53274;DHT22;39163;52.696;6.758;2024-02-21T01:32:04;9.40;99.90
53274;DHT22;39163;52.696;6.758;2024-02-21T01:34:33;9.40;99.90
53274;DHT22;39163;52.696;6.758;2024-02-21T01:37:00;9.40;99.90
53274;DHT22;39163;52.696;6.758;2024-02-21T01:39:30;9.40;99.90
53274;DHT22;39163;52.696;6.758;2024-02-21T01:41:57;9.40;99.90
53274;DHT22;39163;52.696;6.758;2024-02-21T01:44:24;9.40;99.90
53274;DHT22;39163;52.696;6.758;2024-02-21T01:46:51;9.40;99.90
53274;DHT22;39163;52.696;6.758;2024-02-21T01:49:19;9.30;99.90
53274;DHT22;39163;52.696;6.758;2024-02-21T01:51:47;9.30;99.90
53274;DHT22;39163;52.696;6.758;2024-02-21T01:54:15;9.30;99.90
53274;DHT22;39163;52.696;6.758;2024-02-21T01:56:41;9.40;99.90
53274;DHT22;39163;52.696;6.758;2024-02-21T01:59:08;9.40;99.90
53274;DHT22;39163;52.696;6.758;2024-02-21T02:01:35;9.40;99.90
53274;DHT22;39163;52.696;6.758;2024-02-21T02:04:03;9.40;99.90
53274;DHT22;39163;52.696;6.758;2024-02-21T02:06:31;9.40;99.90
53274;DHT22;39163;52.696;6.758;2024-02-21T02:08:59;9.30;99.90
53274;DHT22;39163;52.696;6.758;2024-02-21T02:11:26;9.40;99.90
53274;DHT22;39163;52.696;6.758;2024-02-21T02:13:54;9.30;99.90
53274;DHT22;39163;52.696;6.758;2024-02-21T02:16:21;9.40;99.90
53274;DHT22;39163;52.696;6.758;2024-02-21T02:18:48;9.40;99.90
53274;DHT22;39163;52.696;6.758;2024-02-21T02:21:23;9.40;99.90
53274;DHT22;39163;52.696;6.758;2024-02-21T02:23:55;9.40;99.90
53274;DHT22;39163;52.696;6.758;2024-02-21T02:26:22;9.40;99.90
53274;DHT22;39163;52.696;6.758;2024-02-21T02:28:49;9.40;99.90
53274;DHT22;39163;52.696;6.758;2024-02-21T02:31:16;9.40;99.90
53274;DHT22;39163;52.696;6.758;2024-02-21T02:33:43;9.40;99.90
53274;DHT22;39163;52.696;6.758;2024-02-21T02:36:10;9.30;99.90
53274;DHT22;39163;52.696;6.758;2024-02-21T02:38:37;9.30;99.90
53274;DHT22;39163;52.696;6.758;2024-02-21T02:41:06;9.30;99.90
53274;DHT22;39163;52.696;6.758;2024-02-21T02:43:32;9.20;99.90
53274;DHT22;39163;52.696;6.758;2024-02-21T02:45:59;9.20;99.90
53274;DHT22;39163;52.696;6.758;2024-02-21T02:48:26;9.20;99.90
53274;DHT22;39163;52.696;6.758;2024-02-21T02:50:53;9.10;99.90
53274;DHT22;39163;52.696;6.758;2024-02-21T02:53:20;9.10;99.90
53274;DHT22;39163;52.696;6.758;2024-02-21T02:55:47;9.10;99.90
53274;DHT22;39163;52.696;6.758;2024-02-21T02:58:15;9.10;99.90
53274;DHT22;39163;52.696;6.758;2024-02-21T03:00:42;9.10;99.90
53274;DHT22;39163;52.696;6.758;2024-02-21T03:03:09;9.00;99.90
53274;DHT22;39163;52.696;6.758;2024-02-21T03:05:36;9.00;99.90
53274;DHT22;39163;52.696;6.758;2024-02-21T03:08:04;9.00;99.90
53274;DHT22;39163;52.696;6.758;2024-02-21T03:10:32;9.00;99.90
53274;DHT22;39163;52.696;6.758;2024-02-21T03:12:59;8.90;99.90
53274;DHT22;39163;52.696;6.758;2024-02-21T03:15:28;9.00;99.90
53274;DHT22;39163;52.696;6.758;2024-02-21T03:17:55;8.90;99.90
53274;DHT22;39163;52.696;6.758;2024-02-21T03:20:22;8.90;99.90
53274;DHT22;39163;52.696;6.758;2024-02-21T03:22:49;8.90;99.90
53274;DHT22;39163;52.696;6.758;2024-02-21T03:25:16;8.90;99.90
53274;DHT22;39163;52.696;6.758;2024-02-21T03:27:43;8.90;99.90
53274;DHT22;39163;52.696;6.758;2024-02-21T03:30:10;8.90;99.90
53274;DHT22;39163;52.696;6.758;2024-02-21T03:32:39;8.80;99.90
53274;DHT22;39163;52.696;6.758;2024-02-21T03:35:06;8.90;99.90
53274;DHT22;39163;52.696;6.758;2024-02-21T03:37:33;8.90;99.90
53274;DHT22;39163;52.696;6.758;2024-02-21T03:40:00;8.90;99.90
53274;DHT22;39163;52.696;6.758;2024-02-21T03:42:27;8.90;99.90
53274;DHT22;39163;52.696;6.758;2024-02-21T03:44:55;8.90;99.90
53274;DHT22;39163;52.696;6.758;2024-02-21T03:47:22;8.80;99.90
53274;DHT22;39163;52.696;6.758;2024-02-21T03:49:51;8.90;99.90
53274;DHT22;39163;52.696;6.758;2024-02-21T03:52:17;8.90;99.90
53274;DHT22;39163;52.696;6.758;2024-02-21T03:54:44;8.90;99.90
53274;DHT22;39163;52.696;6.758;2024-02-21T03:57:11;8.90;99.90
53274;DHT22;39163;52.696;6.758;2024-02-21T03:59:38;8.90;99.90
53274;DHT22;39163;52.696;6.758;2024-02-21T04:02:05;8.90;99.90
53274;DHT22;39163;52.696;6.758;2024-02-21T04:04:34;8.90;99.90
53274;DHT22;39163;52.696;6.758;2024-02-21T04:07:04;8.90;99.90
53274;DHT22;39163;52.696;6.758;2024-02-21T04:09:32;8.90;99.90
53274;DHT22;39163;52.696;6.758;2024-02-21T04:12:00;8.90;99.90
53274;DHT22;39163;52.696;6.758;2024-02-21T04:14:28;8.90;99.90
53274;DHT22;39163;52.696;6.758;2024-02-21T04:16:54;8.90;99.90
53274;DHT22;39163;52.696;6.758;2024-02-21T04:19:21;8.90;99.90
53274;DHT22;39163;52.696;6.758;2024-02-21T04:21:48;8.90;99.90
53274;DHT22;39163;52.696;6.758;2024-02-21T04:24:17;8.90;99.90
53274;DHT22;39163;52.696;6.758;2024-02-21T04:26:43;8.90;99.90
53274;DHT22;39163;52.696;6.758;2024-02-21T04:29:11;9.00;99.90
53274;DHT22;39163;52.696;6.758;2024-02-21T04:31:38;8.90;99.90
53274;DHT22;39163;52.696;6.758;2024-02-21T04:34:06;9.00;99.90
53274;DHT22;39163;52.696;6.758;2024-02-21T04:36:33;9.00;99.90
53274;DHT22;39163;52.696;6.758;2024-02-21T04:39:00;9.00;99.90
53274;DHT22;39163;52.696;6.758;2024-02-21T04:41:28;9.00;99.90
53274;DHT22;39163;52.696;6.758;2024-02-21T04:43:55;9.00;99.90
53274;DHT22;39163;52.696;6.758;2024-02-21T04:46:22;9.00;99.90
53274;DHT22;39163;52.696;6.758;2024-02-21T04:48:49;9.00;99.90
53274;DHT22;39163;52.696;6.758;2024-02-21T04:51:16;9.00;99.90
53274;DHT22;39163;52.696;6.758;2024-02-21T04:53:43;9.00;99.90
53274;DHT22;39163;52.696;6.758;2024-02-21T04:56:10;9.00;99.90
53274;DHT22;39163;52.696;6.758;2024-02-21T04:58:39;9.10;99.90
53274;DHT22;39163;52.696;6.758;2024-02-21T05:01:06;9.00;99.90
53274;DHT22;39163;52.696;6.758;2024-02-21T05:03:33;9.00;99.90
53274;DHT22;39163;52.696;6.758;2024-02-21T05:06:00;9.00;99.90
53274;DHT22;39163;52.696;6.758;2024-02-21T05:08:27;9.00;99.90
53274;DHT22;39163;52.696;6.758;2024-02-21T05:10:54;9.10;99.90
53274;DHT22;39163;52.696;6.758;2024-02-21T05:13:21;9.10;99.90
53274;DHT22;39163;52.696;6.758;2024-02-21T05:15:49;9.10;99.90
53274;DHT22;39163;52.696;6.758;2024-02-21T05:18:16;9.10;99.90
53274;DHT22;39163;52.696;6.758;2024-02-21T05:20:43;9.10;99.90
53274;DHT22;39163;52.696;6.758;2024-02-21T05:23:10;9.10;99.90
53274;DHT22;39163;52.696;6.758;2024-02-21T05:25:37;9.10;99.90
53274;DHT22;39163;52.696;6.758;2024-02-21T05:28:04;9.10;99.90
53274;DHT22;39163;52.696;6.758;2024-02-21T05:30:32;9.10;99.90
53274;DHT22;39163;52.696;6.758;2024-02-21T05:33:04;9.10;99.90
53274;DHT22;39163;52.696;6.758;2024-02-21T05:35:32;9.10;99.90
53274;DHT22;39163;52.696;6.758;2024-02-21T05:37:59;9.10;99.90
53274;DHT22;39163;52.696;6.758;2024-02-21T05:40:26;9.10;99.90
53274;DHT22;39163;52.696;6.758;2024-02-21T05:42:53;9.10;99.90
53274;DHT22;39163;52.696;6.758;2024-02-21T05:45:20;9.10;99.90
53274;DHT22;39163;52.696;6.758;2024-02-21T05:47:47;9.10;99.90
53274;DHT22;39163;52.696;6.758;2024-02-21T05:50:15;9.10;99.90
53274;DHT22;39163;52.696;6.758;2024-02-21T05:52:42;9.10;99.90
53274;DHT22;39163;52.696;6.758;2024-02-21T05:55:09;9.10;99.90
53274;DHT22;39163;52.696;6.758;2024-02-21T05:57:36;9.10;99.90
53274;DHT22;39163;52.696;6.758;2024-02-21T06:00:05;9.10;99.90
53274;DHT22;39163;52.696;6.758;2024-02-21T06:02:32;9.10;99.90
53274;DHT22;39163;52.696;6.758;2024-02-21T06:04:59;9.10;99.90
53274;DHT22;39163;52.696;6.758;2024-02-21T06:07:27;9.10;99.90
53274;DHT22;39163;52.696;6.758;2024-02-21T06:09:55;9.10;99.90
53274;DHT22;39163;52.696;6.758;2024-02-21T06:12:21;9.10;99.90
53274;DHT22;39163;52.696;6.758;2024-02-21T06:14:49;9.10;99.90
53274;DHT22;39163;52.696;6.758;2024-02-21T06:17:16;9.10;99.90
53274;DHT22;39163;52.696;6.758;2024-02-21T06:19:44;9.10;99.90
53274;DHT22;39163;52.696;6.758;2024-02-21T06:22:11;9.10;99.90
53274;DHT22;39163;52.696;6.758;2024-02-21T06:24:40;9.10;99.90
53274;DHT22;39163;52.696;6.758;2024-02-21T06:27:07;9.10;99.90
53274;DHT22;39163;52.696;6.758;2024-02-21T06:29:34;9.10;99.90
53274;DHT22;39163;52.696;6.758;2024-02-21T06:32:01;9.10;99.90
53274;DHT22;39163;52.696;6.758;2024-02-21T06:34:28;9.10;99.90
53274;DHT22;39163;52.696;6.758;2024-02-21T06:36:55;9.10;99.90
53274;DHT22;39163;52.696;6.758;2024-02-21T06:39:22;9.10;99.90
53274;DHT22;39163;52.696;6.758;2024-02-21T06:41:51;9.10;99.90
53274;DHT22;39163;52.696;6.758;2024-02-21T06:44:19;9.20;99.90
53274;DHT22;39163;52.696;6.758;2024-02-21T06:46:46;9.10;99.90
53274;DHT22;39163;52.696;6.758;2024-02-21T06:49:13;9.10;99.90
53274;DHT22;39163;52.696;6.758;2024-02-21T06:51:41;9.10;99.90
53274;DHT22;39163;52.696;6.758;2024-02-21T06:54:09;9.10;99.90
53274;DHT22;39163;52.696;6.758;2024-02-21T06:56:36;9.20;99.90
53274;DHT22;39163;52.696;6.758;2024-02-21T06:59:05;9.20;99.90
53274;DHT22;39163;52.696;6.758;2024-02-21T07:01:32;9.10;99.90
53274;DHT22;39163;52.696;6.758;2024-02-21T07:03:59;9.10;99.90
53274;DHT22;39163;52.696;6.758;2024-02-21T07:06:26;9.10;99.90
53274;DHT22;39163;52.696;6.758;2024-02-21T07:08:53;9.10;99.90
53274;DHT22;39163;52.696;6.758;2024-02-21T07:11:20;9.10;99.90
53274;DHT22;39163;52.696;6.758;2024-02-21T07:13:47;9.10;99.90
53274;DHT22;39163;52.696;6.758;2024-02-21T07:16:16;9.10;99.90
53274;DHT22;39163;52.696;6.758;2024-02-21T07:18:43;9.10;99.90
53274;DHT22;39163;52.696;6.758;2024-02-21T07:21:09;9.10;99.90
53274;DHT22;39163;52.696;6.758;2024-02-21T07:23:40;9.00;99.90
53274;DHT22;39163;52.696;6.758;2024-02-21T07:26:07;9.00;99.90
53274;DHT22;39163;52.696;6.758;2024-02-21T07:28:34;9.00;99.90
53274;DHT22;39163;52.696;6.758;2024-02-21T07:31:01;9.00;99.90
53274;DHT22;39163;52.696;6.758;2024-02-21T07:33:30;9.00;99.90
53274;DHT22;39163;52.696;6.758;2024-02-21T07:35:58;9.00;99.90
53274;DHT22;39163;52.696;6.758;2024-02-21T07:38:25;9.00;99.90
53274;DHT22;39163;52.696;6.758;2024-02-21T07:40:51;8.90;99.90
53274;DHT22;39163;52.696;6.758;2024-02-21T07:43:18;9.00;99.90
53274;DHT22;39163;52.696;6.758;2024-02-21T07:45:47;9.00;99.90
53274;DHT22;39163;52.696;6.758;2024-02-21T07:48:14;9.00;99.90
53274;DHT22;39163;52.696;6.758;2024-02-21T07:50:43;9.00;99.90
53274;DHT22;39163;52.696;6.758;2024-02-21T07:53:10;9.00;99.90
53274;DHT22;39163;52.696;6.758;2024-02-21T07:55:37;9.00;99.90
53274;DHT22;39163;52.696;6.758;2024-02-21T07:58:04;9.00;99.90
53274;DHT22;39163;52.696;6.758;2024-02-21T08:00:30;9.00;99.90
53274;DHT22;39163;52.696;6.758;2024-02-21T08:02:57;9.00;99.90
53274;DHT22;39163;52.696;6.758;2024-02-21T08:05:24;9.00;99.90
53274;DHT22;39163;52.696;6.758;2024-02-21T08:07:53;9.00;99.90
53274;DHT22;39163;52.696;6.758;2024-02-21T08:10:20;9.00;99.90
53274;DHT22;39163;52.696;6.758;2024-02-21T08:12:46;9.00;99.90
53274;DHT22;39163;52.696;6.758;2024-02-21T08:15:14;9.00;99.90
53274;DHT22;39163;52.696;6.758;2024-02-21T08:17:41;9.00;99.90
53274;DHT22;39163;52.696;6.758;2024-02-21T08:20:09;8.90;99.90
53274;DHT22;39163;52.696;6.758;2024-02-21T08:22:37;9.00;99.90
53274;DHT22;39163;52.696;6.758;2024-02-21T08:25:06;9.00;99.90
53274;DHT22;39163;52.696;6.758;2024-02-21T08:27:33;9.00;99.90
53274;DHT22;39163;52.696;6.758;2024-02-21T08:30:00;9.00;99.90
53274;DHT22;39163;52.696;6.758;2024-02-21T08:32:29;9.00;99.90
53274;DHT22;39163;52.696;6.758;2024-02-21T08:34:55;9.10;99.90
53274;DHT22;39163;52.696;6.758;2024-02-21T08:37:22;9.10;99.90
53274;DHT22;39163;52.696;6.758;2024-02-21T08:39:49;9.10;99.90
53274;DHT22;39163;52.696;6.758;2024-02-21T08:42:18;9.10;99.90
53274;DHT22;39163;52.696;6.758;2024-02-21T08:44:45;9.10;99.90
53274;DHT22;39163;52.696;6.758;2024-02-21T08:47:12;9.20;99.90
53274;DHT22;39163;52.696;6.758;2024-02-21T08:49:39;9.20;99.90
53274;DHT22;39163;52.696;6.758;2024-02-21T08:52:06;9.20;99.90
53274;DHT22;39163;52.696;6.758;2024-02-21T08:54:33;9.20;99.90
53274;DHT22;39163;52.696;6.758;2024-02-21T08:57:00;9.20;99.90
53274;DHT22;39163;52.696;6.758;2024-02-21T08:59:28;9.20;99.90
53274;DHT22;39163;52.696;6.758;2024-02-21T09:01:55;9.30;99.90
53274;DHT22;39163;52.696;6.758;2024-02-21T09:04:22;9.30;99.90
53274;DHT22;39163;52.696;6.758;2024-02-21T09:06:49;9.30;99.90
53274;DHT22;39163;52.696;6.758;2024-02-21T09:09:18;9.30;99.90
53274;DHT22;39163;52.696;6.758;2024-02-21T09:11:45;9.40;99.90
53274;DHT22;39163;52.696;6.758;2024-02-21T09:14:12;9.40;99.90
53274;DHT22;39163;52.696;6.758;2024-02-21T09:16:41;9.40;99.90
53274;DHT22;39163;52.696;6.758;2024-02-21T09:19:08;9.40;99.90
53274;DHT22;39163;52.696;6.758;2024-02-21T09:21:36;9.50;99.90
53274;DHT22;39163;52.696;6.758;2024-02-21T09:24:04;9.50;99.90
53274;DHT22;39163;52.696;6.758;2024-02-21T09:26:31;9.50;99.90
53274;DHT22;39163;52.696;6.758;2024-02-21T09:28:59;9.50;99.90
53274;DHT22;39163;52.696;6.758;2024-02-21T09:31:26;9.50;99.90
53274;DHT22;39163;52.696;6.758;2024-02-21T09:33:54;9.50;99.90
53274;DHT22;39163;52.696;6.758;2024-02-21T09:36:21;9.50;99.90
53274;DHT22;39163;52.696;6.758;2024-02-21T09:38:48;9.40;99.90
53274;DHT22;39163;52.696;6.758;2024-02-21T09:41:16;9.40;99.90
53274;DHT22;39163;52.696;6.758;2024-02-21T09:43:44;9.50;99.90
53274;DHT22;39163;52.696;6.758;2024-02-21T09:46:16;9.50;99.90
53274;DHT22;39163;52.696;6.758;2024-02-21T09:48:58;9.50;99.90
53274;DHT22;39163;52.696;6.758;2024-02-21T09:51:29;9.50;99.90
53274;DHT22;39163;52.696;6.758;2024-02-21T09:53:57;9.60;99.90
53274;DHT22;39163;52.696;6.758;2024-02-21T09:56:25;9.60;99.90
53274;DHT22;39163;52.696;6.758;2024-02-21T09:58:51;9.60;99.90
53274;DHT22;39163;52.696;6.758;2024-02-21T10:01:18;9.60;99.90
53274;DHT22;39163;52.696;6.758;2024-02-21T10:03:46;9.60;99.90
53274;DHT22;39163;52.696;6.758;2024-02-21T10:06:14;9.60;99.90
53274;DHT22;39163;52.696;6.758;2024-02-21T10:08:41;9.50;99.90
53274;DHT22;39163;52.696;6.758;2024-02-21T10:11:08;9.50;99.90
53274;DHT22;39163;52.696;6.758;2024-02-21T10:13:36;9.60;99.90
53274;DHT22;39163;52.696;6.758;2024-02-21T10:16:05;9.60;99.90
53274;DHT22;39163;52.696;6.758;2024-02-21T10:18:33;9.60;99.90
53274;DHT22;39163;52.696;6.758;2024-02-21T10:21:01;9.60;99.90
53274;DHT22;39163;52.696;6.758;2024-02-21T10:23:40;9.60;99.90
53274;DHT22;39163;52.696;6.758;2024-02-21T10:26:07;9.60;99.90
53274;DHT22;39163;52.696;6.758;2024-02-21T10:28:34;9.70;99.90
53274;DHT22;39163;52.696;6.758;2024-02-21T10:31:01;9.70;99.90
53274;DHT22;39163;52.696;6.758;2024-02-21T10:33:28;9.70;99.90
53274;DHT22;39163;52.696;6.758;2024-02-21T10:36:06;9.70;99.90
53274;DHT22;39163;52.696;6.758;2024-02-21T10:38:36;9.80;99.90
53274;DHT22;39163;52.696;6.758;2024-02-21T10:41:04;9.80;99.90
53274;DHT22;39163;52.696;6.758;2024-02-21T10:43:37;9.80;99.90
53274;DHT22;39163;52.696;6.758;2024-02-21T10:46:06;9.90;99.90
53274;DHT22;39163;52.696;6.758;2024-02-21T10:48:43;10.00;99.90
53274;DHT22;39163;52.696;6.758;2024-02-21T10:51:15;10.10;99.90
53274;DHT22;39163;52.696;6.758;2024-02-21T10:53:53;10.10;99.90
53274;DHT22;39163;52.696;6.758;2024-02-21T10:56:28;10.20;99.90
53274;DHT22;39163;52.696;6.758;2024-02-21T10:58:58;10.20;99.90
53274;DHT22;39163;52.696;6.758;2024-02-21T11:01:26;10.20;99.90
53274;DHT22;39163;52.696;6.758;2024-02-21T11:03:56;10.20;99.90
53274;DHT22;39163;52.696;6.758;2024-02-21T11:06:24;10.10;99.90
53274;DHT22;39163;52.696;6.758;2024-02-21T11:09:05;10.10;99.90
53274;DHT22;39163;52.696;6.758;2024-02-21T11:11:33;10.10;99.90
53274;DHT22;39163;52.696;6.758;2024-02-21T11:14:05;10.10;99.90
53274;DHT22;39163;52.696;6.758;2024-02-21T11:16:36;10.00;99.90
53274;DHT22;39163;52.696;6.758;2024-02-21T11:19:05;10.00;99.90
53274;DHT22;39163;52.696;6.758;2024-02-21T11:21:35;10.10;99.90
53274;DHT22;39163;52.696;6.758;2024-02-21T11:24:04;10.20;99.90
53274;DHT22;39163;52.696;6.758;2024-02-21T11:26:32;10.30;99.90
53274;DHT22;39163;52.696;6.758;2024-02-21T11:29:00;10.30;99.90
53274;DHT22;39163;52.696;6.758;2024-02-21T11:31:38;10.40;99.90
53274;DHT22;39163;52.696;6.758;2024-02-21T11:34:05;10.40;99.90
53274;DHT22;39163;52.696;6.758;2024-02-21T11:36:34;10.50;99.90
53274;DHT22;39163;52.696;6.758;2024-02-21T11:39:05;10.50;99.90
53274;DHT22;39163;52.696;6.758;2024-02-21T11:41:32;10.50;99.90
53274;DHT22;39163;52.696;6.758;2024-02-21T11:43:59;10.50;99.90
53274;DHT22;39163;52.696;6.758;2024-02-21T11:46:26;10.50;99.90
53274;DHT22;39163;52.696;6.758;2024-02-21T11:48:53;10.40;99.90
53274;DHT22;39163;52.696;6.758;2024-02-21T11:51:25;10.40;99.90
53274;DHT22;39163;52.696;6.758;2024-02-21T11:53:52;10.50;99.90
53274;DHT22;39163;52.696;6.758;2024-02-21T11:56:21;10.50;99.90
53274;DHT22;39163;52.696;6.758;2024-02-21T11:58:49;10.50;99.90
53274;DHT22;39163;52.696;6.758;2024-02-21T12:01:16;10.50;99.90
53274;DHT22;39163;52.696;6.758;2024-02-21T12:03:43;10.50;99.90
53274;DHT22;39163;52.696;6.758;2024-02-21T12:06:16;10.40;99.90
53274;DHT22;39163;52.696;6.758;2024-02-21T12:08:45;10.40;99.90
53274;DHT22;39163;52.696;6.758;2024-02-21T12:11:21;10.40;99.90
53274;DHT22;39163;52.696;6.758;2024-02-21T12:13:58;10.30;99.90
53274;DHT22;39163;52.696;6.758;2024-02-21T12:16:27;10.30;99.90
53274;DHT22;39163;52.696;6.758;2024-02-21T12:18:55;10.30;99.90
53274;DHT22;39163;52.696;6.758;2024-02-21T12:21:26;10.30;99.90
53274;DHT22;39163;52.696;6.758;2024-02-21T12:23:54;10.40;99.90
53274;DHT22;39163;52.696;6.758;2024-02-21T12:26:23;10.40;99.90
53274;DHT22;39163;52.696;6.758;2024-02-21T12:28:50;10.40;99.90
53274;DHT22;39163;52.696;6.758;2024-02-21T12:31:17;10.40;99.90
53274;DHT22;39163;52.696;6.758;2024-02-21T12:33:44;10.30;99.90
53274;DHT22;39163;52.696;6.758;2024-02-21T12:36:11;10.40;99.90
53274;DHT22;39163;52.696;6.758;2024-02-21T12:38:38;10.30;99.90
53274;DHT22;39163;52.696;6.758;2024-02-21T12:41:05;10.30;99.90
53274;DHT22;39163;52.696;6.758;2024-02-21T12:43:34;10.30;99.90
53274;DHT22;39163;52.696;6.758;2024-02-21T12:46:01;10.20;99.90
53274;DHT22;39163;52.696;6.758;2024-02-21T12:48:28;10.20;99.90
53274;DHT22;39163;52.696;6.758;2024-02-21T12:50:55;10.20;99.90
53274;DHT22;39163;52.696;6.758;2024-02-21T12:53:22;10.10;99.90
53274;DHT22;39163;52.696;6.758;2024-02-21T12:55:49;10.10;99.90
53274;DHT22;39163;52.696;6.758;2024-02-21T12:58:16;10.10;99.90
53274;DHT22;39163;52.696;6.758;2024-02-21T13:00:45;10.00;99.90
53274;DHT22;39163;52.696;6.758;2024-02-21T13:03:12;10.00;99.90
53274;DHT22;39163;52.696;6.758;2024-02-21T13:05:39;10.00;99.90
53274;DHT22;39163;52.696;6.758;2024-02-21T13:08:06;9.90;99.90
53274;DHT22;39163;52.696;6.758;2024-02-21T13:10:33;9.90;99.90
53274;DHT22;39163;52.696;6.758;2024-02-21T13:13:01;9.90;99.90
53274;DHT22;39163;52.696;6.758;2024-02-21T13:15:28;9.90;99.90
53274;DHT22;39163;52.696;6.758;2024-02-21T13:17:57;10.00;99.90
53274;DHT22;39163;52.696;6.758;2024-02-21T13:20:26;10.10;99.90
53274;DHT22;39163;52.696;6.758;2024-02-21T13:22:54;10.10;99.90
53274;DHT22;39163;52.696;6.758;2024-02-21T13:25:21;10.10;99.90
53274;DHT22;39163;52.696;6.758;2024-02-21T13:27:47;10.00;99.90
53274;DHT22;39163;52.696;6.758;2024-02-21T13:30:15;10.20;99.90
53274;DHT22;39163;52.696;6.758;2024-02-21T13:32:43;10.20;99.90
53274;DHT22;39163;52.696;6.758;2024-02-21T13:35:13;10.30;99.90
53274;DHT22;39163;52.696;6.758;2024-02-21T13:37:40;10.40;99.90
53274;DHT22;39163;52.696;6.758;2024-02-21T13:40:08;10.40;99.90
53274;DHT22;39163;52.696;6.758;2024-02-21T13:42:36;10.40;99.90
53274;DHT22;39163;52.696;6.758;2024-02-21T13:45:04;10.40;99.90
53274;DHT22;39163;52.696;6.758;2024-02-21T13:47:31;10.30;99.90
53274;DHT22;39163;52.696;6.758;2024-02-21T13:49:58;10.20;99.90
53274;DHT22;39163;52.696;6.758;2024-02-21T13:52:26;10.30;99.90
53274;DHT22;39163;52.696;6.758;2024-02-21T13:54:53;10.30;99.90
53274;DHT22;39163;52.696;6.758;2024-02-21T13:57:20;10.30;99.90
53274;DHT22;39163;52.696;6.758;2024-02-21T13:59:47;10.30;99.90
53274;DHT22;39163;52.696;6.758;2024-02-21T14:02:14;10.30;99.90
53274;DHT22;39163;52.696;6.758;2024-02-21T14:04:41;10.20;99.90
53274;DHT22;39163;52.696;6.758;2024-02-21T14:07:08;10.20;99.90
53274;DHT22;39163;52.696;6.758;2024-02-21T14:09:36;10.20;99.90
53274;DHT22;39163;52.696;6.758;2024-02-21T14:12:04;10.20;99.90
53274;DHT22;39163;52.696;6.758;2024-02-21T14:14:34;10.10;99.90
53274;DHT22;39163;52.696;6.758;2024-02-21T14:17:02;10.10;99.90
53274;DHT22;39163;52.696;6.758;2024-02-21T14:19:29;10.10;99.90
53274;DHT22;39163;52.696;6.758;2024-02-21T14:21:56;10.10;99.90
53274;DHT22;39163;52.696;6.758;2024-02-21T14:24:23;10.10;99.90
53274;DHT22;39163;52.696;6.758;2024-02-21T14:26:51;10.10;99.90
53274;DHT22;39163;52.696;6.758;2024-02-21T14:29:18;10.10;99.90
53274;DHT22;39163;52.696;6.758;2024-02-21T14:31:45;10.10;99.90
53274;DHT22;39163;52.696;6.758;2024-02-21T14:34:12;10.10;99.90
53274;DHT22;39163;52.696;6.758;2024-02-21T14:36:39;10.10;99.90
53274;DHT22;39163;52.696;6.758;2024-02-21T14:39:07;10.10;99.90
53274;DHT22;39163;52.696;6.758;2024-02-21T14:41:33;10.10;99.90
53274;DHT22;39163;52.696;6.758;2024-02-21T14:44:02;10.10;99.90
53274;DHT22;39163;52.696;6.758;2024-02-21T14:46:29;10.10;99.90
53274;DHT22;39163;52.696;6.758;2024-02-21T14:48:56;10.10;99.90
53274;DHT22;39163;52.696;6.758;2024-02-21T14:51:23;10.10;99.90
53274;DHT22;39163;52.696;6.758;2024-02-21T14:53:50;10.10;99.90
53274;DHT22;39163;52.696;6.758;2024-02-21T14:56:17;10.10;99.90
53274;DHT22;39163;52.696;6.758;2024-02-21T14:58:44;10.10;99.90
53274;DHT22;39163;52.696;6.758;2024-02-21T15:01:14;10.10;99.90
53274;DHT22;39163;52.696;6.758;2024-02-21T15:03:41;10.10;99.90
53274;DHT22;39163;52.696;6.758;2024-02-21T15:06:08;10.10;99.90
53274;DHT22;39163;52.696;6.758;2024-02-21T15:08:35;10.10;99.90
53274;DHT22;39163;52.696;6.758;2024-02-21T15:11:02;10.20;99.90
53274;DHT22;39163;52.696;6.758;2024-02-21T15:13:29;10.20;99.90
53274;DHT22;39163;52.696;6.758;2024-02-21T15:15:57;10.20;99.90
53274;DHT22;39163;52.696;6.758;2024-02-21T15:18:25;10.10;99.90
53274;DHT22;39163;52.696;6.758;2024-02-21T15:20:52;10.10;99.90
53274;DHT22;39163;52.696;6.758;2024-02-21T15:23:19;10.10;99.90
53274;DHT22;39163;52.696;6.758;2024-02-21T15:25:46;10.10;99.90
53274;DHT22;39163;52.696;6.758;2024-02-21T15:28:13;10.10;99.90
53274;DHT22;39163;52.696;6.758;2024-02-21T15:30:40;10.10;99.90
53274;DHT22;39163;52.696;6.758;2024-02-21T15:33:07;10.10;99.90
53274;DHT22;39163;52.696;6.758;2024-02-21T15:35:35;10.10;99.90
53274;DHT22;39163;52.696;6.758;2024-02-21T15:38:02;10.10;99.90
53274;DHT22;39163;52.696;6.758;2024-02-21T15:40:30;10.10;99.90
53274;DHT22;39163;52.696;6.758;2024-02-21T15:43:01;10.20;99.90
53274;DHT22;39163;52.696;6.758;2024-02-21T15:45:28;10.10;99.90